You must use a browser capable of displaying tables to view this page.

The table shows the data used to make the storm track maps. Click on the storm name in the first row to get a close up view of the storm track.

Name Date Time (UT) Lat (degrees) Lon (degrees) Course (true) Speed (knots) Pressure (mb) Wind (knots) Gusts (knots) Type Actual / Forecast WMO
SONGDA 2011-05-20 06:00 8.3N 141.9E 315 03 ??? 030 040 DEP ACT WTPN31
SONGDA 2011-05-20 12:00 8.5N 141.0E 280 06 ??? 035 045 STO ACT WTPN31
SONGDA 2011-05-20 18:00 9.2N 139.0E 290 05 ??? 035 045 STO ACT WTPN31
SONGDA 2011-05-21 00:00 8.9N 138.5E 270 05 ??? 030 040 DEP ACT WTPN31
SONGDA 2011-05-21 06:00 8.9N 138.2E 285 04 ??? 030 040 DEP ACT WTPN31
SONGDA 2011-05-21 12:00 9.2N 137.7E 300 06 ??? 035 045 STO ACT WTPN31
SONGDA 2011-05-21 18:00 9.8N 137.2E 325 05 ??? 035 045 STO ACT WTPN31
SONGDA 2011-05-22 00:00 9.9N 136.8E 290 05 ??? 045 055 STO ACT WTPN31
SONGDA 2011-05-22 06:00 10.0N 136.4E 290 05 ??? 045 055 STO ACT WTPN31
SONGDA 2011-05-22 12:00 10.3N 135.9E 300 06 ??? 055 070 STO ACT WTPN31
SONGDA 2011-05-22 18:00 10.6N 135.0E 295 08 ??? 055 070 STO ACT WTPN31
SONGDA 2011-05-23 00:00 10.9N 133.9E 290 09 ??? 060 075 STO ACT WTPN31
SONGDA 2011-05-23 06:00 11.2N 132.9E 285 10 ??? 060 075 STO ACT WTPN31
SONGDA 2011-05-23 12:00 11.5N 131.8E 285 11 ??? 060 075 STO ACT WTPN31
SONGDA 2011-05-23 18:00 11.6N 131.4E 285 07 ??? 055 070 STO ACT WTPN31
SONGDA 2011-05-24 00:00 12.0N 130.9E 295 07 ??? 055 070 STO ACT WTPN31
SONGDA 2011-05-24 06:00 12.4N 130.2E 300 08 ??? 060 075 STO ACT WTPN31
SONGDA 2011-05-24 12:00 12.6N 129.3E 285 09 ??? 065 080 TYP ACT WTPN31
SONGDA 2011-05-24 18:00 12.3N 128.5E 275 08 ??? 075 090 TYP ACT WTPN31
SONGDA 2011-05-25 00:00 12.4N 128.1E 290 05 ??? 090 110 TYP ACT WTPN31
SONGDA 2011-05-25 06:00 12.7N 127.8E 315 06 ??? 105 130 TYP ACT WTPN31
SONGDA 2011-05-25 12:00 13.1N 127.4E 310 06 ??? 105 130 TYP ACT WTPN31
SONGDA 2011-05-25 18:00 13.8N 127.2E 340 06 ??? 115 140 TYP ACT WTPN31
SONGDA 2011-05-26 00:00 14.6N 126.6E 335 09 ??? 115 140 TYP ACT WTPN31
SONGDA 2011-05-26 06:00 15.6N 125.7E 320 13 ??? 130 160 TYP ACT WTPN31
SONGDA 2011-05-26 12:00 16.2N 125.1E 315 08 ??? 140 170 TYP ACT WTPN31
SONGDA 2011-05-26 18:00 17.2N 124.4E 325 11 ??? 140 170 TYP ACT WTPN31
SONGDA 2011-05-27 00:00 18.1N 123.9E 330 10 ??? 130 160 TYP ACT WTPN31
SONGDA 2011-05-27 06:00 19.3N 123.4E 340 13 ??? 130 160 TYP ACT WTPN31
SONGDA 2011-05-27 12:00 20.4N 123.1E 345 11 ??? 125 150 TYP ACT WTPN31
SONGDA 2011-05-27 18:00 21.6N 123.2E 005 11 ??? 115 140 TYP ACT WTPN31
SONGDA 2011-05-28 00:00 23.1N 123.8E 020 16 ??? 105 130 TYP ACT WTPN31
SONGDA 2011-05-28 06:00 24.7N 124.9E 030 19 ??? 085 105 TYP ACT WTPN31
SONGDA 2011-05-28 12:00 26.5N 126.6E 040 24 ??? 075 090 TYP ACT WTPN31
SONGDA 2011-05-28 18:00 28.6N 129.2E 045 29 ??? 060 075 STO ACT WTPN31
SONGDA 2011-05-29 00:00 30.6N 131.7E 045 30 ??? 055 070 STO ACT WTPN31
SONGDA 2011-05-29 06:00 32.8N 134.2E 045 31 ??? 050 065 STO ACT WTPN31
SONGDA 2011-05-29 12:00 34.4N 136.6E 050 26 ??? 030 040 DEP ACT WTPN31
SONGDA 2011-05-30 00:00 35.0N 140.4E ??? ??? ??? 030 040 ??? FOR WTPN31
SONGDA 2011-05-30 12:00 35.8N 144.8E ??? ??? ??? 035 045 ??? FOR WTPN31


Home Back

metcalf@akala.ifa.hawaii.edu